Time;durP1;ratioP1;P1;durP2;ratioP2;P2;SDS_P1;SDS_P2;PMS_P1;PMS_P2;Temp;Humidity;BMP_temperature;BMP_pressure;BME280_temperature;BME280_humidity;BME280_pressure;Samples;Min_cycle;Max_cycle;Signal;HPM_P1;HPM_P2
2022/10/03 00:00:25;;;;;;;20.70;2.47;;;12.90;99.90;;;;;;5065641;28;20091;-71
2022/10/03 00:03:28;;;;;;;18.98;2.35;;;12.80;99.90;;;;;;5065486;28;20312;-71
2022/10/03 00:06:14;;;;;;;19.20;2.50;;;12.90;99.90;;;;;;5032058;28;20498;-71
2022/10/03 00:09:06;;;;;;;19.73;2.60;;;12.90;99.90;;;;;;5033354;28;20061;-71
2022/10/03 00:11:38;;;;;;;8.32;1.85;;;12.80;99.90;;;;;;5033497;28;20210;-72
2022/10/03 00:14:18;;;;;;;21.35;2.92;;;12.80;99.90;;;;;;5033204;28;20128;-71
2022/10/03 00:17:20;;;;;;;18.67;2.50;;;12.80;99.90;;;;;;5052022;28;20320;-71
2022/10/03 00:20:03;;;;;;;18.17;2.60;;;12.80;99.90;;;;;;5052136;28;20033;-71
2022/10/03 00:22:40;;;;;;;18.38;2.80;;;12.80;99.90;;;;;;5052167;28;20041;-71
2022/10/03 00:25:28;;;;;;;16.40;2.55;;;12.70;99.90;;;;;;5051966;28;20033;-71
2022/10/03 00:28:03;;;;;;;;;;;12.80;99.90;;;;;;5052291;28;20037;-71
2022/10/03 00:30:40;;;;;;;17.52;2.50;;;12.80;99.90;;;;;;5051842;28;19909;-70
2022/10/03 00:33:39;;;;;;;17.35;2.65;;;12.90;99.90;;;;;;5051288;28;20029;-70
2022/10/03 00:36:29;;;;;;;11.60;2.05;;;12.80;99.90;;;;;;5051763;28;20040;-71
2022/10/03 00:39:13;;;;;;;18.02;3.25;;;12.90;99.90;;;;;;5051481;28;20376;-71
2022/10/03 00:42:13;;;;;;;18.10;2.85;;;12.90;99.90;;;;;;5051598;28;20453;-70
2022/10/03 00:45:14;;;;;;;15.48;2.38;;;12.80;99.90;;;;;;5050442;28;20590;-71
2022/10/03 00:48:12;;;;;;;14.63;3.13;;;12.90;99.90;;;;;;5034804;28;20339;-70
2022/10/03 00:50:46;;;;;;;15.73;2.35;;;12.80;99.90;;;;;;5051343;28;20120;-70
2022/10/03 00:53:24;;;;;;;22.85;3.53;;;12.80;99.90;;;;;;5051670;28;20443;-71
2022/10/03 00:56:20;;;;;;;16.80;2.65;;;12.80;99.90;;;;;;5051478;28;20049;-70
2022/10/03 00:59:11;;;;;;;13.05;1.90;;;12.80;99.90;;;;;;5051436;28;20072;-71
2022/10/03 01:01:45;;;;;;;14.93;2.67;;;12.90;99.90;;;;;;5051360;28;20041;-71
2022/10/03 01:04:37;;;;;;;19.55;3.53;;;12.70;99.90;;;;;;5051148;28;20467;-71
2022/10/03 01:07:24;;;;;;;18.45;3.38;;;12.80;99.90;;;;;;5051077;28;20119;-70
2022/10/03 01:10:12;;;;;;;18.05;2.45;;;12.80;99.90;;;;;;5051219;28;20229;-71
2022/10/03 01:12:56;;;;;;;6.93;1.95;;;12.90;99.90;;;;;;5051154;28;20152;-71
2022/10/03 01:15:50;;;;;;;19.67;2.88;;;12.90;99.90;;;;;;5011397;28;1158338;-70
2022/10/03 01:18:21;;;;;;;14.88;2.10;;;12.80;99.90;;;;;;5051829;28;20048;-71
2022/10/03 01:21:12;;;;;;;14.32;2.03;;;12.70;99.90;;;;;;5052048;28;20049;-70
2022/10/03 01:23:38;;;;;;;9.85;1.83;;;12.80;99.90;;;;;;5051745;28;20044;-71
2022/10/03 01:26:24;;;;;;;24.48;2.55;;;12.70;99.90;;;;;;5052505;28;20029;-70
2022/10/03 01:32:03;;;;;;;16.25;2.58;;;12.90;99.90;;;;;;5052118;28;20044;-70
2022/10/03 01:35:01;;;;;;;18.73;2.85;;;12.80;99.90;;;;;;5051818;28;20037;-70
2022/10/03 01:37:33;;;;;;;17.42;2.10;;;12.80;99.90;;;;;;5031815;28;20438;-71
2022/10/03 01:40:17;;;;;;;12.95;1.98;;;12.60;99.90;;;;;;5031801;28;20121;-71
2022/10/03 01:43:20;;;;;;;21.58;2.63;;;12.70;99.90;;;;;;5031978;28;20538;-71
2022/10/03 01:46:07;;;;;;;10.68;1.67;;;12.80;99.90;;;;;;5020272;28;20081;-71
2022/10/03 01:48:59;;;;;;;17.80;3.27;;;12.80;99.90;;;;;;5031700;28;20509;-71
2022/10/03 01:51:40;;;;;;;9.57;2.13;;;12.70;99.90;;;;;;5031488;28;20045;-71
2022/10/03 01:54:15;;;;;;;11.32;1.85;;;12.80;99.90;;;;;;5030525;28;20025;-71
2022/10/03 01:57:00;;;;;;;16.80;2.40;;;12.60;99.90;;;;;;5031836;28;20036;-70
2022/10/03 01:59:59;;;;;;;20.85;2.47;;;12.60;99.90;;;;;;5031676;28;20164;-71
2022/10/03 02:03:00;;;;;;;13.65;2.00;;;12.70;99.90;;;;;;5031380;28;20030;-71
2022/10/03 02:05:41;;;;;;;11.98;2.20;;;12.60;99.90;;;;;;5030166;28;20418;-70
2022/10/03 02:08:32;;;;;;;17.48;2.42;;;12.70;99.90;;;;;;5011973;28;20022;-70
2022/10/03 02:11:08;;;;;;;16.85;2.90;;;12.60;99.90;;;;;;5011504;28;20438;-70
2022/10/03 02:13:42;;;;;;;20.20;2.35;;;12.60;99.90;;;;;;5011487;28;20033;-70
2022/10/03 02:16:35;;;;;;;13.82;2.30;;;12.60;99.90;;;;;;5011419;28;20503;-71
2022/10/03 02:19:35;;;;;;;20.40;2.35;;;12.50;99.90;;;;;;5011596;28;20034;-70
2022/10/03 02:22:01;;;;;;;12.63;2.70;;;12.50;99.90;;;;;;5011518;28;20356;-70
2022/10/03 02:25:04;;;;;;;16.02;2.13;;;12.50;99.90;;;;;;5011251;28;20109;-71
2022/10/03 02:27:59;;;;;;;11.98;2.10;;;12.60;99.90;;;;;;5011179;28;20368;-71
2022/10/03 02:31:01;;;;;;;18.95;2.53;;;12.70;99.90;;;;;;5011327;28;20461;-70
2022/10/03 02:34:00;;;;;;;21.50;3.13;;;12.60;99.90;;;;;;5010826;28;20080;-70
2022/10/03 02:36:44;;;;;;;15.15;2.47;;;12.60;99.90;;;;;;5011030;28;20040;-70
2022/10/03 02:39:15;;;;;;;13.50;2.00;;;12.70;99.90;;;;;;5011056;28;20075;-70
2022/10/03 02:42:25;;;;;;;13.60;2.85;;;12.70;99.90;;;;;;5011172;28;20040;-72
2022/10/03 02:45:15;;;;;;;15.73;2.78;;;12.60;99.90;;;;;;5011064;28;20510;-71
2022/10/03 02:47:59;;;;;;;15.20;2.70;;;12.60;99.90;;;;;;5029627;28;20045;-70
2022/10/03 02:51:06;;;;;;;13.93;2.30;;;12.70;99.90;;;;;;5030543;28;20033;-70
2022/10/03 02:53:34;;;;;;;17.10;3.30;;;12.60;99.90;;;;;;5005201;28;20018;-70
2022/10/03 02:56:46;;;;;;;13.70;1.95;;;12.40;99.90;;;;;;4989405;28;20347;-71
2022/10/03 02:59:36;;;;;;;17.17;2.50;;;12.50;99.90;;;;;;5007627;28;20316;-71
2022/10/03 03:02:43;;;;;;;8.60;1.75;;;12.50;99.90;;;;;;5030922;28;20405;-70
2022/10/03 03:05:23;;;;;;;15.25;1.95;;;12.60;99.90;;;;;;5030272;28;20376;-71
2022/10/03 03:08:02;;;;;;;14.52;2.67;;;12.50;99.90;;;;;;5030455;28;20345;-71
2022/10/03 03:10:27;;;;;;;18.65;2.55;;;12.60;99.90;;;;;;5045709;28;20033;-70
2022/10/03 03:13:17;;;;;;;9.00;1.77;;;12.60;99.90;;;;;;5045904;28;20037;-71
2022/10/03 03:16:17;;;;;;;11.88;2.00;;;12.50;99.90;;;;;;5030120;28;20044;-71
2022/10/03 03:18:52;;;;;;;17.35;2.83;;;12.50;99.90;;;;;;5030159;28;20038;-71
2022/10/03 03:21:40;;;;;;;19.73;2.90;;;12.40;99.90;;;;;;5021945;28;20030;-70
2022/10/03 03:24:27;;;;;;;8.98;2.33;;;12.40;99.90;;;;;;5010240;28;20034;-70
2022/10/03 03:27:07;;;;;;;13.27;2.28;;;12.20;99.90;;;;;;5010629;28;20085;-71
2022/10/03 03:29:45;;;;;;;19.98;2.80;;;12.20;99.90;;;;;;5010773;28;20621;-71
2022/10/03 03:32:25;;;;;;;15.10;2.38;;;12.20;99.90;;;;;;5010894;28;20026;-71
2022/10/03 03:35:27;;;;;;;16.00;2.35;;;12.30;99.90;;;;;;5030249;28;20072;-70
2022/10/03 03:38:24;;;;;;;13.02;2.35;;;12.20;99.90;;;;;;5010346;28;20104;-70
2022/10/03 03:41:29;;;;;;;16.20;2.50;;;12.10;99.90;;;;;;5030408;28;20033;-71
2022/10/03 03:44:30;;;;;;;13.88;2.47;;;12.20;99.90;;;;;;5030209;28;20618;-71
2022/10/03 03:47:13;;;;;;;18.95;2.70;;;12.00;99.90;;;;;;5028939;28;20040;-71
2022/10/03 03:50:03;;;;;;;19.92;2.30;;;12.10;99.90;;;;;;5029882;28;20029;-71
2022/10/03 03:52:35;;;;;;;12.30;2.38;;;12.30;99.90;;;;;;5030026;28;20025;-72
2022/10/03 03:55:08;;;;;;;13.88;2.63;;;12.30;99.90;;;;;;5029925;28;20079;-71
2022/10/03 03:58:19;;;;;;;12.80;1.75;;;12.40;99.90;;;;;;5029943;28;20029;-71
2022/10/03 04:01:13;;;;;;;12.82;1.90;;;12.40;99.90;;;;;;5021296;28;20534;-71
2022/10/03 04:04:05;;;;;;;16.75;2.00;;;12.30;99.90;;;;;;5029749;28;20042;-71
2022/10/03 04:06:59;;;;;;;23.25;2.60;;;12.30;99.90;;;;;;5045307;28;20045;-70
2022/10/03 04:10:02;;;;;;;14.90;2.47;;;12.30;99.90;;;;;;5033534;28;20030;-71
2022/10/03 04:12:49;;;;;;;12.48;2.38;;;12.20;99.90;;;;;;5048960;28;20113;-71
2022/10/03 04:15:52;;;;;;;18.08;2.35;;;12.30;99.90;;;;;;5033295;28;20038;-70
2022/10/03 04:21:32;;;;;;;11.02;1.75;;;12.10;99.90;;;;;;5025102;28;20049;-71
2022/10/03 04:24:19;;;;;;;18.38;2.38;;;12.00;99.90;;;;;;5013405;28;20129;-70
2022/10/03 04:27:07;;;;;;;17.70;2.15;;;12.20;99.90;;;;;;5013430;28;20041;-70
2022/10/03 04:29:46;;;;;;;18.27;2.17;;;12.40;99.90;;;;;;5013794;28;20029;-71
2022/10/03 04:32:49;;;;;;;14.57;2.60;;;12.50;99.90;;;;;;5013773;28;20033;-70
2022/10/03 04:35:31;;;;;;;10.70;2.45;;;12.50;99.90;;;;;;5032939;28;20061;-70
2022/10/03 04:38:13;;;;;;;11.45;2.45;;;12.30;99.90;;;;;;5033656;28;20029;-71
2022/10/03 04:41:26;;;;;;;17.40;2.47;;;12.30;99.90;;;;;;5033299;28;20030;-70
2022/10/03 04:44:10;;;;;;;21.42;2.38;;;12.30;99.90;;;;;;5028323;28;20455;-70
2022/10/03 04:46:56;;;;;;;14.55;2.65;;;12.30;99.90;;;;;;5033208;28;20382;-71
2022/10/03 04:49:34;;;;;;;11.82;2.20;;;12.40;99.90;;;;;;5032806;28;20079;-71
2022/10/03 04:52:15;;;;;;;17.92;2.28;;;12.20;99.90;;;;;;5048325;28;20084;-71
2022/10/03 04:55:09;;;;;;;13.65;2.03;;;12.30;99.90;;;;;;5032731;28;20049;-70
2022/10/03 04:57:49;;;;;;;19.33;2.42;;;12.30;99.90;;;;;;5032823;28;20025;-70
2022/10/03 05:00:24;;;;;;;13.80;2.25;;;12.40;99.90;;;;;;5032647;28;20048;-71
2022/10/03 05:03:14;;;;;;;18.73;2.90;;;12.40;99.90;;;;;;5032498;28;20401;-70
2022/10/03 05:05:59;;;;;;;18.67;2.28;;;12.30;99.90;;;;;;5032442;28;20044;-71
2022/10/03 05:08:28;;;;;;;7.88;1.83;;;12.40;99.90;;;;;;5032300;28;20079;-70
2022/10/03 05:11:18;;;;;;;15.18;2.53;;;12.30;99.90;;;;;;5032976;28;20036;-70
2022/10/03 05:14:01;;;;;;;14.85;2.45;;;12.30;99.90;;;;;;5012559;28;20112;-70
2022/10/03 05:16:49;;;;;;;14.85;2.60;;;12.20;99.90;;;;;;5012826;28;20026;-70
2022/10/03 05:19:18;;;;;;;14.10;2.30;;;12.10;99.90;;;;;;5011491;28;20033;-70
2022/10/03 05:21:48;;;;;;;16.88;2.50;;;12.10;99.90;;;;;;5012451;28;20076;-70
2022/10/03 05:24:28;;;;;;;17.92;1.92;;;12.30;99.90;;;;;;5012147;28;20383;-70
2022/10/03 05:27:02;;;;;;;12.73;1.90;;;12.30;99.90;;;;;;5012274;28;20460;-71
2022/10/03 05:29:58;;;;;;;12.23;1.98;;;12.30;99.90;;;;;;5044315;28;20026;-70
2022/10/03 05:32:37;;;;;;;15.00;2.65;;;12.20;99.90;;;;;;5012205;28;20056;-72
2022/10/03 05:35:24;;;;;;;15.80;3.72;;;12.20;99.90;;;;;;5012713;28;20025;-71
2022/10/03 05:37:56;;;;;;;18.77;2.40;;;12.20;99.90;;;;;;5012228;28;20026;-71
2022/10/03 05:40:33;;;;;;;16.25;2.20;;;12.30;99.90;;;;;;5012003;28;20041;-71
2022/10/03 05:43:01;;;;;;;13.32;2.30;;;12.10;99.90;;;;;;5012068;28;20030;-71
2022/10/03 05:45:30;;;;;;;15.70;2.45;;;12.20;99.90;;;;;;5027362;28;20037;-71
2022/10/03 05:48:21;;;;;;;19.80;2.42;;;12.20;99.90;;;;;;5012183;28;20045;-71
2022/10/03 05:51:15;;;;;;;18.45;2.88;;;12.10;99.90;;;;;;5011795;28;20416;-70
2022/10/03 05:54:09;;;;;;;9.68;1.98;;;12.20;99.90;;;;;;5011789;28;20030;-72
2022/10/03 05:57:08;;;;;;;16.67;2.50;;;12.10;99.90;;;;;;5011735;28;20229;-71
2022/10/03 05:59:53;;;;;;;9.05;1.75;;;12.20;99.90;;;;;;5011712;28;20025;-70
2022/10/03 06:02:28;;;;;;;13.13;1.98;;;12.10;99.90;;;;;;5043858;28;20460;-69
2022/10/03 06:05:26;;;;;;;19.02;2.15;;;12.20;99.90;;;;;;5011923;28;20026;-71
2022/10/03 06:08:09;;;;;;;14.27;1.95;;;12.10;99.90;;;;;;5011745;28;20034;-71
2022/10/03 06:10:50;;;;;;;9.55;2.05;;;12.20;99.90;;;;;;5011931;28;20030;-71
2022/10/03 06:13:49;;;;;;;17.52;2.65;;;12.20;99.90;;;;;;5011411;28;20033;-71
2022/10/03 06:16:24;;;;;;;9.82;2.10;;;12.30;99.90;;;;;;5010277;28;20038;-70
2022/10/03 06:19:10;;;;;;;10.35;2.25;;;12.30;99.90;;;;;;5011507;28;20026;-71
2022/10/03 06:21:42;;;;;;;20.33;2.65;;;12.30;99.90;;;;;;5011432;28;20030;-71
2022/10/03 06:24:38;;;;;;;13.77;2.97;;;12.50;99.90;;;;;;5011295;28;20038;-70
2022/10/03 06:27:39;;;;;;;20.20;2.10;;;12.50;99.90;;;;;;5011125;28;20431;-70
2022/10/03 06:30:40;;;;;;;14.35;1.83;;;12.60;99.90;;;;;;4999192;28;20054;-69
2022/10/03 06:33:57;;;;;;;16.55;2.85;;;12.50;99.90;;;;;;4987910;28;20438;-69
2022/10/03 06:37:01;;;;;;;14.45;3.10;;;12.50;99.90;;;;;;5002157;28;20029;-70
2022/10/03 06:39:29;;;;;;;15.38;2.47;;;12.50;99.90;;;;;;5010974;28;20034;-70
2022/10/03 06:42:56;;;;;;;10.77;2.35;;;12.40;99.90;;;;;;5011139;28;20115;-70
2022/10/03 06:46:03;;;;;;;12.15;2.35;;;12.70;99.90;;;;;;4958081;28;20124;-71
2022/10/03 06:48:47;;;;;;;13.85;2.30;;;12.70;99.90;;;;;;4991766;28;20387;-72
2022/10/03 06:51:16;;;;;;;11.77;3.00;;;12.70;99.90;;;;;;5011003;28;20047;-70
2022/10/03 06:53:58;;;;;;;20.23;2.35;;;12.70;99.90;;;;;;5010838;28;20068;-70
2022/10/03 06:56:37;;;;;;;11.18;1.65;;;12.80;99.90;;;;;;5010781;28;20049;-71
2022/10/03 06:59:34;;;;;;;18.10;2.33;;;12.80;99.90;;;;;;5011259;28;20030;-71
2022/10/03 07:02:19;;;;;;;;;;;12.80;99.90;;;;;;5031073;28;20045;-71
2022/10/03 07:05:03;;;;;;;19.33;2.53;;;12.70;99.90;;;;;;5030347;28;19913;-73
2022/10/03 07:07:48;;;;;;;15.38;3.88;;;12.90;99.90;;;;;;5030436;28;20060;-71
2022/10/03 07:10:20;;;;;;;12.00;1.85;;;13.00;99.90;;;;;;5030336;28;20029;-71
2022/10/03 07:13:17;;;;;;;17.55;2.50;;;12.90;99.90;;;;;;5030667;28;20163;-72
2022/10/03 07:16:13;;;;;;;10.60;2.30;;;12.90;99.90;;;;;;5030610;28;20478;-72
2022/10/03 07:19:16;;;;;;;16.40;2.53;;;13.10;99.90;;;;;;5030380;28;20258;-71
2022/10/03 07:22:07;;;;;;;16.13;2.42;;;13.20;99.90;;;;;;5030376;28;20414;-71
2022/10/03 07:25:04;;;;;;;11.95;2.30;;;13.30;99.90;;;;;;5030336;28;20044;-71
2022/10/03 07:27:42;;;;;;;16.80;4.47;;;13.20;99.90;;;;;;5030234;28;20038;-72
2022/10/03 07:30:21;;;;;;;17.17;3.80;;;13.10;99.90;;;;;;5030142;28;20038;-71
2022/10/03 07:33:05;;;;;;;13.48;2.50;;;13.30;99.90;;;;;;5030246;28;20052;-72
2022/10/03 07:39:26;;;;;;;12.27;2.22;;;13.40;99.90;;;;;;5030160;28;20041;-71
2022/10/03 07:42:21;;;;;;;16.23;2.50;;;13.40;99.90;;;;;;5020461;28;20218;-71
2022/10/03 07:45:29;;;;;;;17.27;2.65;;;13.50;99.90;;;;;;5034506;28;20037;-72
2022/10/03 07:48:22;;;;;;;16.02;2.83;;;13.60;99.90;;;;;;5024319;28;20364;-71
2022/10/03 07:50:52;;;;;;;15.85;2.40;;;13.70;99.90;;;;;;5014357;28;20120;-73
2022/10/03 07:53:32;;;;;;;18.13;2.40;;;13.50;99.90;;;;;;5014159;28;20026;-71
2022/10/03 07:56:31;;;;;;;12.23;2.20;;;13.60;99.90;;;;;;5014480;28;20110;-71
2022/10/03 07:59:18;;;;;;;15.80;2.20;;;13.80;99.90;;;;;;5014088;28;20181;-72
2022/10/03 08:02:34;;;;;;;11.05;2.15;;;13.80;99.90;;;;;;5034124;28;20049;-72
2022/10/03 08:05:00;;;;;;;16.63;2.63;;;13.80;99.90;;;;;;5024508;28;20057;-73
2022/10/03 08:07:44;;;;;;;11.75;1.65;;;14.00;99.90;;;;;;5033528;28;20421;-72
2022/10/03 08:10:28;;;;;;;16.52;2.00;;;14.00;99.90;;;;;;5033300;28;20021;-71
2022/10/03 08:13:12;;;;;;;12.07;2.38;;;14.10;99.90;;;;;;5033435;28;20041;-71
2022/10/03 08:15:53;;;;;;;11.35;2.50;;;14.20;99.90;;;;;;5033194;28;20484;-71
2022/10/03 08:18:21;;;;;;;16.85;2.30;;;14.30;99.90;;;;;;5033314;28;20045;-72
2022/10/03 08:21:10;;;;;;;17.23;1.98;;;14.40;99.90;;;;;;5029217;28;20095;-70
2022/10/03 08:24:19;;;;;;;13.70;2.85;;;14.50;99.90;;;;;;5012789;28;20135;-71
2022/10/03 08:27:17;;;;;;;11.30;1.73;;;14.50;99.90;;;;;;5013268;28;20026;-73
2022/10/03 08:29:49;;;;;;;8.13;1.73;;;14.60;99.90;;;;;;5009020;28;20030;-72
2022/10/03 08:32:32;;;;;;;10.57;2.05;;;14.70;99.90;;;;;;5013626;28;20018;-72
2022/10/03 08:35:37;;;;;;;11.55;2.03;;;14.80;99.90;;;;;;5013239;28;20080;-70
2022/10/03 08:38:38;;;;;;;8.77;1.83;;;14.90;99.90;;;;;;5013304;28;20049;-71
2022/10/03 08:41:33;;;;;;;17.55;2.35;;;15.00;99.90;;;;;;5013153;28;20122;-70
2022/10/03 08:44:37;;;;;;;20.25;3.28;;;15.20;99.90;;;;;;5012193;28;20511;-72
2022/10/03 08:47:18;;;;;;;17.25;2.40;;;15.60;99.90;;;;;;5027503;28;20038;-71
2022/10/03 08:50:14;;;;;;;9.10;1.90;;;16.20;99.90;;;;;;5033459;28;20059;-71
2022/10/03 08:52:46;;;;;;;14.32;1.80;;;17.10;99.90;;;;;;5032832;28;20080;-71
2022/10/03 08:55:44;;;;;;;12.77;1.80;;;17.80;99.70;;;;;;5047617;28;20380;-71
2022/10/03 08:58:19;;;;;;;;;;;18.60;99.30;;;;;;5052001;28;20044;-71
2022/10/03 09:01:06;;;;;;;14.38;1.65;;;19.10;98.50;;;;;;5052633;28;20330;-72
2022/10/03 09:03:59;;;;;;;12.52;2.38;;;19.70;98.60;;;;;;5052719;28;20072;-71
2022/10/03 09:06:59;;;;;;;13.65;2.03;;;20.30;96.90;;;;;;5051647;28;20037;-68
2022/10/03 09:09:58;;;;;;;6.60;1.35;;;20.80;95.00;;;;;;5047962;28;20052;-70
2022/10/03 09:12:58;;;;;;;8.30;1.30;;;21.30;95.00;;;;;;5052416;28;20039;-71
2022/10/03 09:15:40;;;;;;;10.02;2.25;;;22.10;94.20;;;;;;5052058;28;20132;-73
2022/10/03 09:18:20;;;;;;;12.80;2.03;;;23.00;93.50;;;;;;5052587;28;20366;-73
2022/10/03 09:21:27;;;;;;;8.07;1.60;;;23.20;91.90;;;;;;5052637;28;20021;-73
2022/10/03 09:24:13;;;;;;;11.80;2.58;;;22.40;90.20;;;;;;5052008;28;20467;-72
2022/10/03 09:26:53;;;;;;;9.90;1.77;;;22.00;92.50;;;;;;5052415;28;20037;-72
2022/10/03 09:29:57;;;;;;;11.88;1.98;;;22.10;92.80;;;;;;5052146;28;20533;-73
2022/10/03 09:32:40;;;;;;;8.63;1.52;;;21.80;91.40;;;;;;5052229;28;20063;-73
2022/10/03 09:35:27;;;;;;;13.15;2.53;;;21.70;91.70;;;;;;5052510;28;20048;-73
2022/10/03 09:38:29;;;;;;;11.90;2.45;;;20.40;92.60;;;;;;5052228;28;20505;-70
2022/10/03 09:41:01;;;;;;;8.68;1.73;;;20.00;93.10;;;;;;5051857;28;20033;-72
2022/10/03 09:44:10;;;;;;;9.65;1.95;;;19.40;93.50;;;;;;5051640;28;20041;-71
2022/10/03 09:47:28;;;;;;;9.02;1.67;;;19.40;94.30;;;;;;5051576;28;20049;-71
2022/10/03 09:50:07;;;;;;;11.40;2.63;;;19.60;94.30;;;;;;5049413;28;20066;-71
2022/10/03 09:52:43;;;;;;;14.27;2.13;;;19.00;94.40;;;;;;5051662;28;20033;-72
2022/10/03 09:55:18;;;;;;;13.48;2.25;;;19.00;94.70;;;;;;5051421;28;20421;-73
2022/10/03 09:58:07;;;;;;;10.68;1.92;;;18.60;95.20;;;;;;5051552;28;20213;-72
2022/10/03 10:00:57;;;;;;;8.27;2.10;;;18.50;95.40;;;;;;5051278;28;20063;-70
2022/10/03 10:03:47;;;;;;;12.85;1.92;;;18.80;95.70;;;;;;5051216;28;20116;-76
2022/10/03 10:06:51;;;;;;;13.23;1.98;;;18.80;95.80;;;;;;5049660;28;20033;-73
2022/10/03 10:09:48;;;;;;;9.95;1.52;;;19.00;95.10;;;;;;5050870;28;20029;-73
2022/10/03 10:12:35;;;;;;;12.13;1.85;;;18.70;95.10;;;;;;5050013;28;20029;-73
2022/10/03 10:15:00;;;;;;;10.50;1.77;;;18.50;95.50;;;;;;5050924;28;20072;-71
2022/10/03 10:17:50;;;;;;;7.25;1.63;;;18.40;95.70;;;;;;5051317;28;20053;-72
2022/10/03 10:20:32;;;;;;;11.48;1.73;;;18.40;95.90;;;;;;5051395;28;20017;-72
2022/10/03 10:23:09;;;;;;;14.63;1.85;;;18.50;95.80;;;;;;5051075;28;20122;-72
2022/10/03 10:25:56;;;;;;;14.02;2.08;;;18.70;96.20;;;;;;5051180;28;20033;-72
2022/10/03 10:28:59;;;;;;;12.50;2.10;;;19.20;95.60;;;;;;5050797;28;20029;-71
2022/10/03 10:32:02;;;;;;;9.18;2.05;;;20.20;94.10;;;;;;5050800;28;20103;-72
2022/10/03 10:34:45;;;;;;;8.93;2.30;;;20.70;94.10;;;;;;5050933;28;20037;-72
2022/10/03 10:37:26;;;;;;;9.10;1.60;;;21.50;92.90;;;;;;5051093;28;20033;-73
2022/10/03 10:40:13;;;;;;;14.75;1.70;;;21.70;91.60;;;;;;5050550;28;20029;-74
2022/10/03 10:43:02;;;;;;;8.30;1.55;;;21.70;92.10;;;;;;5050661;28;20032;-74
2022/10/03 10:46:03;;;;;;;10.93;2.00;;;21.50;92.20;;;;;;5050213;28;20140;-74
2022/10/03 10:48:53;;;;;;;16.45;1.95;;;21.80;93.00;;;;;;5050664;28;20040;-74
2022/10/03 10:51:41;;;;;;;12.10;1.67;;;21.70;91.50;;;;;;5050666;28;20359;-72
2022/10/03 10:54:32;;;;;;;12.10;1.80;;;21.70;92.20;;;;;;5050345;28;20367;-75
2022/10/03 10:57:33;;;;;;;11.35;2.20;;;21.90;91.60;;;;;;5050460;28;20051;-74
2022/10/03 11:00:30;;;;;;;13.80;2.10;;;21.40;90.80;;;;;;5050379;28;20062;-76
2022/10/03 11:03:14;;;;;;;8.50;1.48;;;21.30;91.30;;;;;;5049432;28;20039;-74
2022/10/03 11:05:59;;;;;;;16.33;2.33;;;21.50;91.40;;;;;;5050108;28;20033;-74
2022/10/03 11:08:41;;;;;;;12.32;2.60;;;22.40;91.00;;;;;;5050282;28;20102;-72
2022/10/03 11:11:09;;;;;;;6.75;1.80;;;23.60;90.50;;;;;;5050600;28;20029;-76
2022/10/03 11:13:51;;;;;;;9.98;1.67;;;23.10;87.50;;;;;;5049010;28;20124;-72
2022/10/03 11:16:54;;;;;;;9.60;1.85;;;22.80;90.50;;;;;;5050147;28;20033;-74
2022/10/03 11:19:40;;;;;;;9.52;1.88;;;22.30;89.20;;;;;;5054425;28;20051;-71
2022/10/03 11:22:36;;;;;;;15.93;3.85;;;20.80;90.90;;;;;;5054319;28;20144;-71
2022/10/03 11:25:14;;;;;;;11.70;2.17;;;20.80;91.20;;;;;;5054238;28;20048;-72
2022/10/03 11:27:58;;;;;;;;;;;20.70;91.70;;;;;;5054636;28;20094;-72
2022/10/03 11:30:59;;;;;;;9.32;1.83;;;20.40;91.80;;;;;;5053014;28;19912;-72
2022/10/03 11:33:54;;;;;;;9.70;2.20;;;19.90;92.20;;;;;;5053032;28;20033;-72
2022/10/03 11:36:54;;;;;;;15.45;2.55;;;19.80;92.30;;;;;;5053878;28;20029;-72
2022/10/03 11:39:40;;;;;;;5.45;1.13;;;19.80;92.30;;;;;;5054153;28;20037;-71
2022/10/03 11:42:32;;;;;;;9.95;1.98;;;19.60;92.50;;;;;;5054008;28;20461;-73
2022/10/03 11:44:59;;;;;;;10.43;1.75;;;19.30;92.80;;;;;;5053892;28;20065;-73
2022/10/03 11:47:37;;;;;;;12.38;2.72;;;18.90;93.30;;;;;;5054032;28;20534;-72
2022/10/03 11:50:37;;;;;;;12.65;1.42;;;18.80;93.70;;;;;;5054302;28;20078;-73
2022/10/03 11:53:33;;;;;;;10.80;1.33;;;18.50;94.20;;;;;;5053148;28;20382;-73
2022/10/03 11:56:22;;;;;;;8.52;1.67;;;18.50;94.20;;;;;;5054294;28;20025;-72
2022/10/03 11:59:11;;;;;;;9.30;1.92;;;18.20;94.30;;;;;;5053431;28;20056;-71
2022/10/03 12:02:02;;;;;;;7.88;1.23;;;18.40;94.10;;;;;;5053500;28;20025;-72
2022/10/03 12:04:33;;;;;;;6.75;1.67;;;18.40;93.90;;;;;;5053606;28;20041;-73
2022/10/03 12:10:13;;;;;;;6.60;1.67;;;18.50;93.90;;;;;;5053339;28;20087;-73
2022/10/03 12:12:42;;;;;;;9.38;2.10;;;18.30;93.90;;;;;;5054305;28;20087;-72
2022/10/03 12:15:40;;;;;;;22.17;2.38;;;18.30;94.70;;;;;;5053155;28;20045;-76
2022/10/03 12:18:33;;;;;;;7.97;1.88;;;18.50;94.30;;;;;;5053661;28;20099;-73
2022/10/03 12:21:36;;;;;;;11.02;1.75;;;18.30;94.30;;;;;;5050907;28;20049;-73
2022/10/03 12:24:24;;;;;;;7.15;1.50;;;18.40;94.40;;;;;;5053095;28;20110;-74
2022/10/03 12:26:52;;;;;;;7.45;1.33;;;18.20;94.40;;;;;;5053247;28;20033;-73
2022/10/03 12:29:20;;;;;;;6.43;1.42;;;18.20;94.40;;;;;;5053125;28;20061;-73
2022/10/03 12:32:06;;;;;;;9.30;1.45;;;18.30;94.10;;;;;;5054008;28;20009;-74
2022/10/03 12:34:37;;;;;;;9.75;1.25;;;18.20;93.90;;;;;;5045183;28;20090;-72
2022/10/03 12:37:18;;;;;;;6.72;1.48;;;18.30;93.90;;;;;;5052998;28;20478;-73
2022/10/03 12:40:11;;;;;;;6.45;1.40;;;18.20;93.90;;;;;;5052693;28;20493;-70
2022/10/03 12:42:55;;;;;;;8.77;1.27;;;18.30;94.50;;;;;;5053303;28;20353;-73
2022/10/03 12:45:42;;;;;;;7.28;1.38;;;18.40;94.30;;;;;;5052936;28;20122;-71
2022/10/03 12:48:38;;;;;;;13.73;1.67;;;18.40;94.30;;;;;;5053109;28;20535;-71
2022/10/03 12:51:19;;;;;;;12.38;2.00;;;18.20;94.40;;;;;;5051513;28;20041;-72
2022/10/03 12:54:17;;;;;;;7.20;1.35;;;18.20;94.50;;;;;;5052693;28;20033;-72
2022/10/03 12:56:55;;;;;;;8.32;1.33;;;18.30;94.40;;;;;;5051918;28;20043;-71
2022/10/03 13:00:00;;;;;;;7.40;1.08;;;18.20;94.40;;;;;;5052371;28;20020;-71
2022/10/03 13:02:40;;;;;;;9.48;1.40;;;18.10;94.40;;;;;;5073187;28;20033;-71
2022/10/03 13:05:27;;;;;;;3.53;0.90;;;17.90;94.40;;;;;;5053215;28;20060;-72
2022/10/03 13:08:11;;;;;;;6.10;1.10;;;17.80;94.60;;;;;;5032707;28;20371;-72
2022/10/03 13:11:24;;;;;;;9.30;1.63;;;17.60;94.60;;;;;;5032771;28;20041;-72
2022/10/03 13:14:08;;;;;;;10.00;1.60;;;17.60;94.70;;;;;;5032187;28;20072;-73
2022/10/03 13:16:59;;;;;;;8.65;1.10;;;17.80;94.70;;;;;;5051051;28;20079;-73
2022/10/03 13:19:34;;;;;;;5.63;1.40;;;18.00;94.50;;;;;;5048594;28;20423;-72
2022/10/03 13:22:29;;;;;;;12.90;1.40;;;18.00;94.50;;;;;;5036848;28;20033;-72
2022/10/03 13:25:14;;;;;;;6.28;1.10;;;18.00;94.40;;;;;;5031804;28;20121;-72
2022/10/03 13:28:01;;;;;;;12.82;2.20;;;17.90;94.30;;;;;;5030789;28;20061;-72
2022/10/03 13:30:37;;;;;;;3.50;0.90;;;17.80;94.50;;;;;;5032267;28;20382;-72
2022/10/03 13:33:22;;;;;;;4.78;1.10;;;17.90;94.60;;;;;;5032018;28;20045;-72
2022/10/03 13:35:58;;;;;;;7.03;1.20;;;18.00;94.40;;;;;;5031821;28;20479;-72
2022/10/03 13:38:45;;;;;;;7.63;1.25;;;18.20;94.50;;;;;;5031841;28;20455;-72
2022/10/03 13:41:29;;;;;;;5.72;1.25;;;18.20;94.00;;;;;;5031193;28;20463;-71
2022/10/03 13:43:59;;;;;;;5.28;1.25;;;18.20;94.00;;;;;;5031637;28;20124;-72
2022/10/03 13:46:32;;;;;;;8.35;1.20;;;18.20;94.00;;;;;;5032109;28;20192;-72
2022/10/03 13:49:10;;;;;;;6.95;1.08;;;18.40;93.80;;;;;;5031744;28;20260;-72
2022/10/03 13:52:01;;;;;;;8.30;1.25;;;18.40;93.60;;;;;;5063857;28;20345;-73
2022/10/03 13:54:49;;;;;;;6.90;1.90;;;18.50;93.40;;;;;;5031872;28;20041;-72
2022/10/03 13:57:22;;;;;;;;;;;18.50;93.50;;;;;;5031953;28;20025;-72
2022/10/03 14:00:11;;;;;;;7.30;1.60;;;18.50;93.30;;;;;;5031199;28;19970;-73
2022/10/03 14:03:07;;;;;;;5.43;1.40;;;18.50;93.50;;;;;;5031150;28;20151;-71
2022/10/03 14:05:44;;;;;;;11.90;1.52;;;18.50;93.40;;;;;;5030183;28;20044;-72
2022/10/03 14:08:28;;;;;;;11.60;1.58;;;18.50;93.50;;;;;;5031787;28;20021;-72
2022/10/03 14:11:00;;;;;;;4.63;1.25;;;18.50;93.40;;;;;;5046971;28;20048;-70
2022/10/03 14:13:51;;;;;;;6.75;1.38;;;18.50;93.50;;;;;;5030231;28;20021;-72
2022/10/03 14:16:49;;;;;;;7.90;1.85;;;18.30;93.70;;;;;;5031315;28;20455;-73
2022/10/03 14:19:40;;;;;;;5.80;1.42;;;18.20;93.80;;;;;;5038711;28;20033;-71
2022/10/03 14:22:35;;;;;;;2.85;1.00;;;18.20;94.10;;;;;;5047264;28;20040;-73
2022/10/03 14:25:16;;;;;;;11.80;1.50;;;18.30;94.00;;;;;;5049753;28;20443;-72
2022/10/03 14:28:27;;;;;;;11.00;1.45;;;18.20;93.90;;;;;;5050649;28;20090;-72
2022/10/03 14:31:15;;;;;;;10.55;1.65;;;18.00;94.00;;;;;;5028425;28;20045;-72
2022/10/03 14:34:22;;;;;;;6.78;1.20;;;18.00;94.10;;;;;;5050577;28;20098;-72
2022/10/03 14:37:07;;;;;;;4.22;1.00;;;18.00;94.10;;;;;;5050780;28;20033;-72